Terminal Aerodrome Forecast
Issued by NWS

Home | Current Version | Previous Version | Graphics & Text | Print | Product List | Glossary On
Versions: 1 2 3 4 5 6 7 8 9 10 11 12 13 14 15 16 17 18 19 20 21 22 23 24 25 26 27 28 29
000
FTUS43 KABR 201831 AAA
TAFATY
TAF AMD
KATY 201831Z 2019/2118 06015KT 5SM -DZ BKN010 OVC016
      TEMPO 2019/2020 -RA
     FM202000 05014G21KT 5SM -RA OVC008
     FM210200 01010KT 4SM -RA OVC003
     FM210300 01009KT 4SM -RA OVC008
     FM210500 35009KT 5SM -RASN OVC008
     FM210900 32010KT P6SM OVC003
     FM211000 32010KT P6SM OVC008
     FM211200 31011G20KT P6SM OVC003
     FM211700 32019G28KT P6SM BKN020=

USA.gov is the U.S. government's official web portal to all federal, state and local government web resources and services.